createdAt,value
2019-01-29T00:00:35.891Z,18.20
2019-01-29T00:03:06.695Z,20.33
2019-01-29T00:05:35.243Z,19.90
2019-01-29T00:08:03.677Z,22.63
2019-01-29T00:10:32.509Z,18.17
2019-01-29T00:13:01.419Z,16.80
2019-01-29T00:15:29.704Z,17.77
2019-01-29T00:17:58.223Z,22.70
2019-01-29T00:20:27.429Z,19.90
2019-01-29T00:22:56.230Z,19.80
2019-01-29T00:25:24.866Z,18.73
2019-01-29T00:27:54.870Z,22.70
2019-01-29T00:30:24.635Z,24.73
2019-01-29T00:32:53.541Z,20.00
2019-01-29T00:35:22.119Z,17.10
2019-01-29T00:37:50.639Z,21.73
2019-01-29T00:40:18.891Z,19.67
2019-01-29T00:42:48.208Z,21.37
2019-01-29T00:45:17.424Z,18.07
2019-01-29T00:47:46.067Z,18.53
2019-01-29T00:50:14.694Z,20.00
2019-01-29T00:52:44.279Z,24.30
2019-01-29T00:55:14.159Z,22.93
2019-01-29T00:57:42.893Z,25.03
2019-01-29T01:00:18.976Z,29.20
2019-01-29T01:02:47.348Z,17.47
2019-01-29T01:05:16.606Z,21.70
2019-01-29T01:07:45.348Z,23.87
2019-01-29T01:10:16.228Z,24.57
2019-01-29T01:12:44.412Z,21.57
2019-01-29T01:15:13.414Z,28.27
2019-01-29T01:17:41.552Z,24.27
2019-01-29T01:20:13.153Z,21.33
2019-01-29T01:22:50.408Z,24.07
2019-01-29T01:25:12.986Z,23.57
2019-01-29T01:27:41.421Z,28.70
2019-01-29T01:30:13.117Z,28.03
2019-01-29T01:32:41.287Z,29.10
2019-01-29T01:35:11.003Z,21.37
2019-01-29T01:37:39.179Z,26.20
2019-01-29T01:40:11.341Z,23.20
2019-01-29T01:42:39.589Z,25.50
2019-01-29T01:45:08.925Z,20.23
2019-01-29T01:47:37.912Z,27.93
2019-01-29T01:50:07.599Z,26.67
2019-01-29T01:52:36.163Z,28.33
2019-01-29T01:55:06.343Z,27.10
2019-01-29T01:57:34.860Z,26.73
2019-01-29T02:00:03.159Z,31.13
2019-01-29T02:02:32.432Z,29.77
2019-01-29T02:05:00.546Z,30.97
2019-01-29T02:07:28.861Z,29.87
2019-01-29T02:09:58.220Z,32.37
2019-01-29T02:12:26.511Z,28.37
2019-01-29T02:14:56.119Z,23.40
2019-01-29T02:17:24.647Z,23.47
2019-01-29T02:19:52.812Z,25.13
2019-01-29T02:22:21.163Z,28.13
2019-01-29T02:24:50.303Z,28.87
2019-01-29T02:27:18.621Z,31.93
2019-01-29T02:29:46.784Z,27.20
2019-01-29T02:32:14.928Z,26.80
2019-01-29T02:34:44.058Z,30.03
2019-01-29T02:37:12.371Z,24.17
2019-01-29T02:39:40.597Z,27.70
2019-01-29T02:42:09.718Z,22.27
2019-01-29T02:44:38.510Z,29.83
2019-01-29T02:47:07.141Z,28.83
2019-01-29T02:49:35.360Z,29.20
2019-01-29T02:52:03.788Z,29.67
2019-01-29T02:54:32.295Z,27.07
2019-01-29T02:57:00.592Z,29.80
2019-01-29T02:59:29.074Z,27.20
2019-01-29T03:01:57.885Z,34.93
2019-01-29T03:04:26.010Z,34.53
2019-01-29T03:06:54.492Z,32.73
2019-01-29T03:09:23.893Z,30.03
2019-01-29T03:11:52.414Z,31.40
2019-01-29T03:14:20.470Z,28.57
2019-01-29T03:16:48.820Z,33.73
2019-01-29T03:19:16.995Z,34.87
2019-01-29T03:21:45.606Z,34.10
2019-01-29T03:24:13.943Z,37.20
2019-01-29T03:26:42.888Z,33.37
2019-01-29T03:29:11.051Z,36.40
2019-01-29T03:31:41.010Z,38.87
2019-01-29T03:34:09.244Z,37.00
2019-01-29T03:36:37.518Z,34.47
2019-01-29T03:39:08.011Z,39.10
2019-01-29T03:41:36.727Z,50.87
2019-01-29T03:44:05.042Z,43.03
2019-01-29T03:46:33.343Z,53.27
2019-01-29T03:49:01.612Z,51.23
2019-01-29T03:51:29.835Z,42.77
2019-01-29T03:53:58.170Z,44.93
2019-01-29T03:56:26.802Z,48.97
2019-01-29T03:58:54.889Z,48.20
2019-01-29T04:04:25.992Z,45.03
2019-01-29T04:07:13.065Z,46.23
2019-01-29T04:10:00.264Z,46.77
2019-01-29T04:12:47.495Z,47.20
2019-01-29T04:15:34.387Z,42.87
2019-01-29T04:18:21.002Z,39.63
2019-01-29T04:21:08.160Z,44.60
2019-01-29T04:23:54.535Z,47.97
2019-01-29T04:26:41.348Z,42.17
2019-01-29T04:29:28.522Z,41.10
2019-01-29T04:31:56.853Z,39.20
2019-01-29T04:34:25.028Z,43.70
2019-01-29T04:36:53.180Z,47.70
2019-01-29T04:39:22.079Z,41.97
2019-01-29T04:41:50.520Z,45.77
2019-01-29T04:44:18.617Z,35.97
2019-01-29T04:46:47.103Z,46.93
2019-01-29T04:49:15.985Z,41.53
2019-01-29T04:51:44.069Z,44.00
2019-01-29T04:54:12.423Z,37.60
2019-01-29T04:56:40.765Z,40.53
2019-01-29T04:59:09.324Z,35.73
2019-01-29T05:01:37.988Z,42.53
2019-01-29T05:04:06.310Z,36.60
2019-01-29T05:06:37.626Z,33.73
2019-01-29T05:09:08.201Z,38.33
2019-01-29T05:11:36.490Z,38.40
2019-01-29T05:14:05.023Z,37.67
2019-01-29T05:16:33.084Z,37.60
2019-01-29T05:19:01.535Z,37.93
2019-01-29T05:21:31.778Z,45.17
2019-01-29T05:24:06.688Z,38.97
2019-01-29T05:26:31.182Z,43.13
2019-01-29T05:28:59.282Z,41.10
2019-01-29T05:31:28.373Z,35.00
2019-01-29T05:33:56.964Z,40.23
2019-01-29T05:36:25.194Z,43.83
2019-01-29T05:38:53.184Z,42.97
2019-01-29T05:41:22.127Z,41.33
2019-01-29T05:43:50.951Z,36.23
2019-01-29T05:46:19.237Z,44.00
2019-01-29T05:48:48.154Z,33.37
2019-01-29T05:51:16.526Z,41.80
2019-01-29T05:53:46.311Z,43.53
2019-01-29T05:56:14.507Z,45.00
2019-01-29T05:58:42.636Z,40.27
2019-01-29T06:01:11.672Z,41.90
2019-01-29T06:03:42.931Z,41.80
2019-01-29T06:06:11.214Z,42.93
2019-01-29T06:08:40.373Z,44.97
2019-01-29T06:11:08.539Z,50.20
2019-01-29T06:13:36.739Z,54.23
2019-01-29T06:16:05.091Z,45.07
2019-01-29T06:18:33.100Z,57.00
2019-01-29T06:21:01.250Z,57.57
2019-01-29T06:23:30.856Z,55.53
2019-01-29T06:25:59.042Z,63.20
2019-01-29T06:28:27.277Z,66.17
2019-01-29T06:30:55.307Z,69.23
2019-01-29T06:33:23.965Z,75.47
2019-01-29T06:35:52.865Z,68.43
2019-01-29T06:38:20.843Z,74.53
2019-01-29T06:40:49.052Z,82.47
2019-01-29T06:43:17.736Z,85.03
2019-01-29T06:45:45.961Z,91.27
2019-01-29T06:48:14.619Z,97.33
2019-01-29T06:50:42.684Z,90.00
2019-01-29T06:53:14.328Z,95.43
2019-01-29T06:55:42.559Z,104.20
2019-01-29T06:58:10.810Z,106.70
2019-01-29T07:00:39.619Z,108.43
2019-01-29T07:03:08.505Z,106.93
2019-01-29T07:05:36.694Z,106.47
2019-01-29T07:08:05.709Z,113.23
2019-01-29T07:10:34.121Z,103.70
2019-01-29T07:13:02.749Z,109.33
2019-01-29T07:15:49.456Z,116.90
2019-01-29T07:18:40.262Z,107.20
2019-01-29T07:21:09.613Z,108.17
2019-01-29T07:23:38.144Z,106.33
2019-01-29T07:26:06.862Z,104.30
2019-01-29T07:28:35.729Z,104.20
2019-01-29T07:31:06.553Z,107.03
2019-01-29T07:33:35.529Z,97.43
2019-01-29T07:36:04.075Z,100.63
2019-01-29T07:38:32.169Z,101.27
2019-01-29T07:41:00.363Z,91.40
2019-01-29T07:43:28.648Z,99.30
2019-01-29T07:45:57.386Z,92.30
2019-01-29T07:48:27.234Z,102.50
2019-01-29T07:50:55.838Z,102.70
2019-01-29T07:53:24.344Z,100.10
2019-01-29T07:55:53.356Z,96.70
2019-01-29T07:58:21.688Z,89.40
2019-01-29T08:00:50.237Z,102.57
2019-01-29T08:03:18.540Z,82.60
2019-01-29T08:05:46.824Z,82.57
2019-01-29T08:08:15.144Z,78.73
2019-01-29T08:10:44.449Z,75.00
2019-01-29T08:13:13.505Z,73.90
2019-01-29T08:15:41.809Z,79.67
2019-01-29T08:18:10.002Z,90.87
2019-01-29T08:20:40.232Z,79.43
2019-01-29T08:23:08.853Z,82.13
2019-01-29T08:25:37.761Z,86.07
2019-01-29T08:28:06.840Z,91.20
2019-01-29T08:30:37.145Z,78.63
2019-01-29T08:33:06.117Z,91.13
2019-01-29T08:35:34.613Z,94.93
2019-01-29T08:38:02.927Z,101.23
2019-01-29T08:40:34.122Z,95.50
2019-01-29T08:43:03.446Z,94.17
2019-01-29T08:45:31.936Z,87.43
2019-01-29T08:48:00.282Z,84.97
2019-01-29T08:50:29.303Z,80.63
2019-01-29T08:52:58.763Z,86.63
2019-01-29T08:55:27.147Z,79.67
2019-01-29T08:57:55.628Z,79.77
2019-01-29T09:00:24.202Z,76.10
2019-01-29T09:02:52.401Z,75.87
2019-01-29T09:05:21.156Z,80.23
2019-01-29T09:07:49.287Z,76.07
2019-01-29T09:10:17.768Z,89.23
2019-01-29T09:12:45.945Z,78.27
2019-01-29T09:15:15.359Z,71.80
2019-01-29T09:17:43.555Z,86.00
2019-01-29T09:20:12.887Z,72.10
2019-01-29T09:22:41.303Z,75.53
2019-01-29T09:25:19.109Z,84.00
2019-01-29T09:27:41.617Z,86.67
2019-01-29T09:30:13.138Z,83.17
2019-01-29T09:32:41.836Z,90.87
2019-01-29T09:35:10.179Z,116.23
2019-01-29T09:37:38.637Z,115.57
2019-01-29T09:40:11.499Z,86.60
2019-01-29T09:42:40.559Z,81.37
2019-01-29T09:45:10.848Z,100.17
2019-01-29T09:47:39.688Z,86.97
2019-01-29T09:50:08.675Z,83.83
2019-01-29T09:52:36.932Z,73.67
2019-01-29T09:55:08.145Z,88.30
2019-01-29T09:57:38.437Z,79.50
2019-01-29T10:00:10.192Z,74.00
2019-01-29T10:02:38.369Z,67.13
2019-01-29T10:05:07.293Z,73.07
2019-01-29T10:07:35.805Z,61.50
2019-01-29T10:10:04.579Z,64.90
2019-01-29T10:12:32.801Z,69.07
2019-01-29T10:15:01.521Z,64.73
2019-01-29T10:17:30.101Z,64.93
2019-01-29T10:20:02.809Z,65.80
2019-01-29T10:22:28.545Z,70.57
2019-01-29T10:24:57.089Z,58.67
2019-01-29T10:27:25.212Z,70.03
2019-01-29T10:29:54.822Z,69.43
2019-01-29T10:32:27.424Z,73.30
2019-01-29T10:34:58.693Z,68.90
2019-01-29T10:37:26.933Z,74.63
2019-01-29T10:39:55.316Z,72.23
2019-01-29T10:42:23.619Z,64.60
2019-01-29T10:44:51.826Z,70.53
2019-01-29T10:47:20.172Z,68.70
2019-01-29T10:49:50.378Z,61.90
2019-01-29T10:52:18.683Z,61.17
2019-01-29T10:54:46.802Z,63.17
2019-01-29T10:57:15.122Z,55.07
2019-01-29T10:59:45.656Z,55.07
2019-01-29T11:02:14.007Z,57.27
2019-01-29T11:04:42.573Z,46.83
2019-01-29T11:07:12.223Z,51.53
2019-01-29T11:09:41.487Z,56.93
2019-01-29T11:12:11.337Z,53.33
2019-01-29T11:14:39.687Z,51.37
2019-01-29T11:17:08.262Z,57.17
2019-01-29T11:19:36.560Z,57.47
2019-01-29T11:22:06.050Z,63.60
2019-01-29T11:24:34.644Z,63.67
2019-01-29T11:27:03.028Z,52.60
2019-01-29T11:29:31.702Z,55.17
2019-01-29T11:32:03.712Z,45.57
2019-01-29T11:34:31.882Z,44.97
2019-01-29T11:37:00.415Z,42.07
2019-01-29T11:39:28.705Z,52.60
2019-01-29T11:42:00.901Z,45.83
2019-01-29T11:44:29.069Z,47.40
2019-01-29T11:46:57.288Z,41.40
2019-01-29T11:49:25.726Z,45.03
2019-01-29T11:51:54.237Z,46.57
2019-01-29T11:54:22.623Z,40.23
2019-01-29T11:56:51.594Z,36.87
2019-01-29T11:59:19.825Z,27.87
2019-01-29T12:01:48.489Z,23.40
2019-01-29T12:04:16.708Z,25.63
2019-01-29T12:06:45.898Z,30.90
2019-01-29T12:09:14.265Z,22.37
2019-01-29T12:11:42.483Z,35.77
2019-01-29T12:14:10.753Z,24.63
2019-01-29T12:16:39.128Z,27.03
2019-01-29T12:19:07.889Z,23.97
2019-01-29T12:21:36.117Z,29.27
2019-01-29T12:24:04.322Z,29.50
2019-01-29T12:26:35.042Z,22.30
2019-01-29T12:29:03.622Z,17.53
2019-01-29T12:31:32.232Z,20.87
2019-01-29T12:34:00.413Z,20.53
2019-01-29T12:36:28.650Z,24.10
2019-01-29T12:38:57.059Z,15.80
2019-01-29T12:41:25.798Z,19.80
2019-01-29T12:43:55.025Z,19.57
2019-01-29T12:46:23.527Z,23.93
2019-01-29T12:48:52.738Z,19.50
2019-01-29T12:51:30.710Z,27.90
2019-01-29T12:53:59.069Z,24.70
2019-01-29T12:56:28.380Z,22.87
2019-01-29T12:58:56.479Z,18.73
2019-01-29T13:01:25.704Z,18.47
2019-01-29T13:03:54.338Z,19.60
2019-01-29T13:06:25.806Z,22.20
2019-01-29T13:08:56.924Z,20.20
2019-01-29T13:11:25.139Z,19.63
2019-01-29T13:13:53.584Z,15.00
2019-01-29T13:16:21.690Z,16.80
2019-01-29T13:18:50.837Z,16.00
2019-01-29T13:21:19.337Z,22.17
2019-01-29T13:23:47.674Z,14.77
2019-01-29T13:26:16.080Z,19.53
2019-01-29T13:28:47.786Z,21.57
2019-01-29T13:31:16.982Z,24.23
2019-01-29T13:33:45.507Z,38.87
2019-01-29T13:36:13.513Z,24.03
2019-01-29T13:38:42.138Z,24.47
2019-01-29T13:41:11.005Z,21.83
2019-01-29T13:43:39.958Z,20.83
2019-01-29T13:46:08.403Z,19.70
2019-01-29T13:48:40.042Z,20.83
2019-01-29T13:51:08.893Z,20.50
2019-01-29T13:53:42.519Z,19.90
2019-01-29T13:56:11.198Z,27.40
2019-01-29T13:58:46.442Z,18.07
2019-01-29T14:01:16.660Z,22.60
2019-01-29T14:03:45.438Z,21.77
2019-01-29T14:06:13.917Z,25.30
2019-01-29T14:08:44.485Z,28.03
2019-01-29T14:11:13.424Z,26.83
2019-01-29T14:13:43.968Z,21.67
2019-01-29T14:16:13.664Z,20.63
2019-01-29T14:18:42.281Z,20.50
2019-01-29T14:21:10.552Z,21.63
2019-01-29T14:23:38.825Z,21.60
2019-01-29T14:26:07.927Z,22.30
2019-01-29T14:28:36.689Z,23.93
2019-01-29T14:31:09.201Z,18.73
2019-01-29T14:33:38.255Z,22.57
2019-01-29T14:36:16.232Z,25.47
2019-01-29T14:39:12.217Z,28.70
2019-01-29T14:41:43.377Z,21.30
2019-01-29T14:44:27.020Z,20.03
2019-01-29T14:46:56.796Z,22.30
2019-01-29T14:49:29.993Z,22.47
2019-01-29T14:52:00.028Z,18.30
2019-01-29T14:54:28.374Z,18.77
2019-01-29T14:56:57.420Z,19.43
2019-01-29T14:59:25.854Z,23.37
2019-01-29T15:01:54.016Z,16.93
2019-01-29T15:04:22.541Z,13.70
2019-01-29T15:06:51.492Z,13.47
2019-01-29T15:09:20.158Z,10.90
2019-01-29T15:11:49.363Z,11.03
2019-01-29T15:14:17.834Z,14.73
2019-01-29T15:17:05.727Z,9.40
2019-01-29T15:19:34.881Z,13.40
2019-01-29T15:22:07.011Z,11.97
2019-01-29T15:24:35.970Z,11.20
2019-01-29T15:27:06.084Z,8.73
2019-01-29T15:29:44.269Z,9.33
2019-01-29T15:32:12.620Z,9.77
2019-01-29T15:34:42.029Z,8.77
2019-01-29T15:37:10.878Z,15.00
2019-01-29T15:39:39.046Z,13.37
2019-01-29T15:42:07.308Z,14.10
2019-01-29T15:44:35.891Z,10.70
2019-01-29T15:47:06.300Z,10.57
2019-01-29T15:49:35.227Z,11.23
2019-01-29T15:52:03.779Z,11.50
2019-01-29T15:54:32.011Z,9.80
2019-01-29T15:57:02.443Z,12.70
2019-01-29T15:59:31.058Z,9.20
2019-01-29T16:01:59.473Z,11.60
2019-01-29T16:04:28.508Z,9.43
2019-01-29T16:06:56.481Z,8.13
2019-01-29T16:09:24.723Z,11.63
2019-01-29T16:11:54.471Z,8.57
2019-01-29T16:14:22.394Z,13.43
2019-01-29T16:16:50.863Z,9.67
2019-01-29T16:19:20.400Z,11.03
2019-01-29T16:21:49.221Z,13.07
2019-01-29T16:24:17.560Z,9.97
2019-01-29T16:26:45.792Z,17.70
2019-01-29T16:29:14.811Z,10.47
2019-01-29T16:31:43.463Z,9.80
2019-01-29T16:34:11.841Z,8.60
2019-01-29T16:36:40.152Z,7.77
2019-01-29T16:39:09.559Z,11.80
2019-01-29T16:41:37.994Z,14.73
2019-01-29T16:44:07.026Z,15.23
2019-01-29T16:46:35.312Z,8.73
2019-01-29T16:49:04.433Z,11.27
2019-01-29T16:51:41.869Z,10.23
2019-01-29T16:54:04.460Z,11.47
2019-01-29T16:56:32.658Z,10.60
2019-01-29T16:59:01.345Z,11.23
2019-01-29T17:01:30.813Z,10.47
2019-01-29T17:03:59.049Z,15.13
2019-01-29T17:06:29.401Z,13.20
2019-01-29T17:08:58.285Z,13.60
2019-01-29T17:11:26.352Z,11.97
2019-01-29T17:13:54.941Z,15.27
2019-01-29T17:16:24.787Z,10.67
2019-01-29T17:18:53.236Z,9.43
2019-01-29T17:21:21.475Z,9.63
2019-01-29T17:23:50.405Z,11.60
2019-01-29T17:26:19.005Z,10.73
2019-01-29T17:28:47.433Z,11.60
2019-01-29T17:31:16.568Z,8.67
2019-01-29T17:33:45.162Z,11.37
2019-01-29T17:36:14.004Z,9.60
2019-01-29T17:38:44.665Z,9.83
2019-01-29T17:41:13.262Z,12.80
2019-01-29T17:43:42.708Z,15.07
2019-01-29T17:46:13.785Z,10.00
2019-01-29T17:48:43.520Z,11.63
2019-01-29T17:51:12.507Z,10.63
2019-01-29T17:53:40.771Z,12.50
2019-01-29T17:56:09.765Z,10.27
2019-01-29T17:58:39.517Z,9.93
2019-01-29T18:01:08.708Z,10.57
2019-01-29T18:03:38.823Z,10.80
2019-01-29T18:06:09.836Z,15.27
2019-01-29T18:08:49.499Z,11.07
2019-01-29T18:11:09.459Z,11.30
2019-01-29T18:13:37.625Z,10.27
2019-01-29T18:16:06.094Z,10.80
2019-01-29T18:18:34.706Z,14.17
2019-01-29T18:21:02.951Z,14.70
2019-01-29T18:23:30.856Z,15.77
2019-01-29T18:25:59.132Z,11.03
2019-01-29T18:28:27.984Z,15.47
2019-01-29T18:30:56.088Z,11.03
2019-01-29T18:33:24.358Z,9.83
2019-01-29T18:35:53.309Z,10.57
2019-01-29T18:38:22.009Z,12.43
2019-01-29T18:40:53.012Z,10.93
2019-01-29T18:43:21.556Z,9.60
2019-01-29T18:45:50.091Z,9.47
2019-01-29T18:48:19.547Z,10.63
2019-01-29T18:50:48.231Z,12.47
2019-01-29T18:53:18.653Z,12.43
2019-01-29T18:55:46.922Z,13.93
2019-01-29T18:58:15.446Z,10.80
2019-01-29T19:00:54.016Z,13.50
2019-01-29T19:03:18.185Z,14.37
2019-01-29T19:05:49.867Z,11.57
2019-01-29T19:08:19.471Z,11.53
2019-01-29T19:10:51.210Z,12.73
2019-01-29T19:13:19.648Z,12.37
2019-01-29T19:15:48.458Z,13.07
2019-01-29T19:18:17.402Z,13.13
2019-01-29T19:20:46.938Z,11.00
2019-01-29T19:23:15.127Z,10.40
2019-01-29T19:25:43.653Z,9.60
2019-01-29T19:28:21.437Z,10.93
2019-01-29T19:30:43.124Z,11.87
2019-01-29T19:33:11.342Z,10.97
2019-01-29T19:35:40.344Z,7.77
2019-01-29T19:38:09.008Z,12.80
2019-01-29T19:40:37.504Z,13.83
2019-01-29T19:43:05.828Z,13.20
2019-01-29T19:45:34.639Z,11.33
2019-01-29T19:48:04.964Z,10.93
2019-01-29T19:50:33.269Z,14.83
2019-01-29T19:53:02.174Z,10.00
2019-01-29T19:55:31.658Z,10.90
2019-01-29T19:58:08.677Z,13.43
2019-01-29T20:00:32.905Z,8.80
2019-01-29T20:03:01.365Z,9.67
2019-01-29T20:05:31.206Z,21.23
2019-01-29T20:07:59.737Z,8.10
2019-01-29T20:10:28.132Z,10.90
2019-01-29T20:12:56.401Z,8.17
2019-01-29T20:15:24.993Z,9.00
2019-01-29T20:17:54.556Z,8.40
2019-01-29T20:20:32.869Z,9.53
2019-01-29T20:23:07.690Z,10.43
2019-01-29T20:25:32.485Z,10.70
2019-01-29T20:28:00.784Z,12.00
2019-01-29T20:30:30.971Z,7.57
2019-01-29T20:33:05.248Z,9.57
2019-01-29T20:35:35.529Z,8.23
2019-01-29T20:38:04.285Z,9.90
2019-01-29T20:40:32.787Z,7.20
2019-01-29T20:43:01.580Z,11.10
2019-01-29T20:45:30.881Z,7.33
2019-01-29T20:48:17.894Z,10.03
2019-01-29T20:50:46.448Z,6.60
2019-01-29T20:53:16.857Z,8.27
2019-01-29T20:55:46.351Z,7.87
2019-01-29T20:58:14.688Z,4.43
2019-01-29T21:00:42.856Z,4.47
2019-01-29T21:03:11.163Z,7.47
2019-01-29T21:05:39.869Z,9.57
2019-01-29T21:08:08.774Z,7.60
2019-01-29T21:10:37.375Z,5.20
2019-01-29T21:13:05.783Z,9.00
2019-01-29T21:15:38.644Z,9.90
2019-01-29T21:18:06.751Z,8.50
2019-01-29T21:20:35.246Z,12.97
2019-01-29T21:23:06.565Z,12.93
2019-01-29T21:25:36.343Z,16.97
2019-01-29T21:28:04.717Z,10.10
2019-01-29T21:30:44.144Z,10.00
2019-01-29T21:33:13.222Z,11.93
2019-01-29T21:35:41.657Z,11.80
2019-01-29T21:38:10.228Z,8.37
2019-01-29T21:40:41.138Z,10.07
2019-01-29T21:43:09.310Z,11.27
2019-01-29T21:45:37.741Z,8.63
2019-01-29T21:48:06.566Z,16.57
2019-01-29T21:50:36.293Z,14.13
2019-01-29T21:53:05.341Z,9.17
2019-01-29T21:55:33.669Z,11.33
2019-01-29T21:58:02.220Z,9.70
2019-01-29T22:00:36.617Z,8.73
2019-01-29T22:03:05.668Z,11.20
2019-01-29T22:05:34.797Z,9.87
2019-01-29T22:08:03.768Z,11.20
2019-01-29T22:10:32.244Z,11.23
2019-01-29T22:13:00.513Z,13.17
2019-01-29T22:15:29.443Z,10.60
2019-01-29T22:17:58.091Z,14.63
2019-01-29T22:20:26.403Z,13.40
2019-01-29T22:22:54.582Z,15.70
2019-01-29T22:25:23.715Z,13.20
2019-01-29T22:27:53.728Z,13.33
2019-01-29T22:30:29.015Z,12.73
2019-01-29T22:32:57.256Z,13.30
2019-01-29T22:35:26.549Z,18.93
2019-01-29T22:37:55.176Z,18.63
2019-01-29T22:40:24.365Z,17.13
2019-01-29T22:42:53.909Z,18.60
2019-01-29T22:45:22.573Z,18.87
2019-01-29T22:47:51.635Z,21.10
2019-01-29T22:50:22.515Z,19.23
2019-01-29T22:52:50.786Z,14.67
2019-01-29T22:55:19.925Z,19.27
2019-01-29T22:57:48.934Z,19.10
2019-01-29T23:00:42.830Z,17.13
2019-01-29T23:03:12.255Z,18.70
2019-01-29T23:05:41.327Z,22.03
2019-01-29T23:08:09.833Z,19.20
2019-01-29T23:10:38.709Z,17.57
2019-01-29T23:13:07.389Z,22.43
2019-01-29T23:18:31.685Z,22.93
2019-01-29T23:21:02.722Z,21.10
2019-01-29T23:23:31.246Z,22.13
2019-01-29T23:26:00.586Z,24.73
2019-01-29T23:28:28.805Z,24.67
2019-01-29T23:30:57.618Z,23.83
2019-01-29T23:33:25.692Z,20.80
2019-01-29T23:35:54.935Z,24.47
2019-01-29T23:38:27.451Z,24.20
2019-01-29T23:40:55.775Z,23.67
2019-01-29T23:43:24.016Z,25.20
2019-01-29T23:45:52.300Z,25.07
2019-01-29T23:48:22.277Z,26.17
2019-01-29T23:50:51.594Z,25.10
2019-01-29T23:53:20.277Z,23.40
2019-01-29T23:55:48.965Z,25.07
2019-01-29T23:58:19.085Z,24.30
